Time;durP1;ratioP1;P1;durP2;ratioP2;P2;SDS_P1;SDS_P2;PMS_P1;PMS_P2;Temp;Humidity;BMP_temperature;BMP_pressure;BME280_temperature;BME280_humidity;BME280_pressure;Samples;Min_cycle;Max_cycle;Signal;HPM_P1;HPM_P2
2022/06/22 00:02:31;;;;;;;7.97;4.70;;;;;;;;;;5053997;28;20044;-61
2022/06/22 00:05:07;;;;;;;9.52;5.07;;;;;;;;;;5053964;28;20490;-61
2022/06/22 00:07:36;;;;;;;9.48;5.75;;;;;;;;;;5054035;28;20128;-61
2022/06/22 00:10:09;;;;;;;9.63;4.82;;;;;;;;;;5053745;28;20041;-61
2022/06/22 00:12:37;;;;;;;8.60;5.10;;;;;;;;;;5036231;28;20069;-61
2022/06/22 00:15:20;;;;;;;8.65;4.20;;;;;;;;;;5053898;28;20083;-61
2022/06/22 00:17:48;;;;;;;9.75;5.05;;;;;;;;;;5053750;28;20044;-61
2022/06/22 00:20:16;;;;;;;9.27;4.70;;;;;;;;;;5053443;28;20052;-61
2022/06/22 00:23:18;;;;;;;7.10;4.63;;;;;;;;;;5053659;28;20071;-61
2022/06/22 00:25:46;;;;;;;8.95;4.07;;;;;;;;;;4953420;29;20047;-61
2022/06/22 00:28:25;;;;;;;10.90;5.15;;;;;;;;;;5017126;28;20045;-61
2022/06/22 00:31:00;;;;;;;10.63;4.38;;;;;;;;;;5053762;28;20041;-61
2022/06/22 00:33:28;;;;;;;6.35;5.07;;;;;;;;;;5053530;28;20043;-61
2022/06/22 00:36:01;;;;;;;11.25;4.72;;;;;;;;;;5053481;28;20048;-62
2022/06/22 00:38:31;;;;;;;9.15;5.20;;;;;;;;;;5053295;28;20077;-61
2022/06/22 00:41:15;;;;;;;9.77;4.50;;;;;;;;;;5053339;28;20513;-61
2022/06/22 00:43:43;;;;;;;6.93;4.30;;;;;;;;;;5053379;28;20438;-61
2022/06/22 00:46:15;;;;;;;8.15;4.93;;;;;;;;;;5053222;28;20052;-61
2022/06/22 00:48:43;;;;;;;9.88;5.07;;;;;;;;;;5053178;28;20556;-63
2022/06/22 00:51:15;;;;;;;11.80;4.97;;;;;;;;;;5053011;28;20037;-61
2022/06/22 00:53:44;;;;;;;7.88;4.78;;;;;;;;;;5052890;28;20041;-61
2022/06/22 00:56:18;;;;;;;10.65;4.40;;;;;;;;;;5053106;28;20491;-61
2022/06/22 00:58:48;;;;;;;7.72;4.72;;;;;;;;;;5052884;28;20041;-61
2022/06/22 01:01:21;;;;;;;10.70;4.38;;;;;;;;;;5052765;28;20068;-61
2022/06/22 01:03:49;;;;;;;9.13;4.57;;;;;;;;;;5052917;28;20033;-61
2022/06/22 01:06:20;;;;;;;7.65;4.70;;;;;;;;;;5052909;28;20041;-61
2022/06/22 01:08:48;;;;;;;9.30;5.10;;;;;;;;;;5052835;28;20041;-61
2022/06/22 01:14:26;;;;;;;20.98;5.00;;;;;;;;;;5029759;28;20059;-61
2022/06/22 01:16:56;;;;;;;10.05;4.50;;;;;;;;;;5052758;28;20421;-61
2022/06/22 01:19:35;;;;;;;7.38;4.68;;;;;;;;;;5052635;28;20049;-62
2022/06/22 01:22:12;;;;;;;9.30;5.05;;;;;;;;;;5052667;28;20076;-61
2022/06/22 01:24:52;;;;;;;9.57;4.57;;;;;;;;;;5052636;28;20045;-61
2022/06/22 01:27:33;;;;;;;8.00;4.72;;;;;;;;;;5052500;28;20071;-61
2022/06/22 01:30:04;;;;;;;5.68;4.65;;;;;;;;;;5052547;28;20094;-61
2022/06/22 01:32:34;;;;;;;11.63;5.18;;;;;;;;;;5051684;28;20402;-62
2022/06/22 01:35:14;;;;;;;8.40;5.32;;;;;;;;;;5052601;28;20044;-61
2022/06/22 01:37:45;;;;;;;7.85;4.28;;;;;;;;;;5052591;28;20052;-61
2022/06/22 01:40:15;;;;;;;10.05;4.72;;;;;;;;;;5052383;28;20051;-62
2022/06/22 01:42:50;;;;;;;6.40;4.32;;;;;;;;;;5052370;28;20056;-62
2022/06/22 01:45:33;;;;;;;6.90;4.40;;;;;;;;;;5052550;28;20124;-63
2022/06/22 01:48:12;;;;;;;7.57;4.82;;;;;;;;;;5052337;28;20045;-64
2022/06/22 01:50:46;;;;;;;8.30;5.20;;;;;;;;;;5052107;28;20044;-61
2022/06/22 01:53:40;;;;;;;6.93;5.00;;;;;;;;;;5052176;28;20454;-63
2022/06/22 01:56:26;;;;;;;9.20;5.03;;;;;;;;;;5048721;28;20052;-61
2022/06/22 01:58:59;;;;;;;11.65;4.95;;;;;;;;;;5052297;28;20380;-64
2022/06/22 02:01:35;;;;;;;8.07;5.28;;;;;;;;;;5052052;28;20367;-61
2022/06/22 02:04:08;;;;;;;9.35;5.00;;;;;;;;;;5052136;28;20495;-62
2022/06/22 02:09:25;;;;;;;8.95;5.28;;;;;;;;;;5052392;28;20131;-61
2022/06/22 02:12:18;;;;;;;8.45;4.93;;;;;;;;;;5051956;28;20044;-61
2022/06/22 02:14:45;;;;;;;13.82;5.32;;;;;;;;;;5052008;28;20036;-61
2022/06/22 02:17:14;;;;;;;10.27;5.22;;;;;;;;;;5052011;28;20071;-61
2022/06/22 02:19:42;;;;;;;6.75;5.15;;;;;;;;;;5034186;28;20136;-64
2022/06/22 02:22:12;;;;;;;9.70;5.50;;;;;;;;;;5051904;28;20487;-63
2022/06/22 02:24:43;;;;;;;10.00;5.32;;;;;;;;;;5051920;28;20095;-62
2022/06/22 02:27:12;;;;;;;7.88;5.50;;;;;;;;;;5052000;28;20120;-62
2022/06/22 02:29:42;;;;;;;11.15;6.10;;;;;;;;;;5051943;28;20052;-62
2022/06/22 02:32:11;;;;;;;10.02;5.95;;;;;;;;;;5051599;28;20478;-62
2022/06/22 02:34:41;;;;;;;12.85;6.97;;;;;;;;;;5051947;28;20052;-62
2022/06/22 02:37:11;;;;;;;9.90;6.20;;;;;;;;;;5051946;28;20045;-62
2022/06/22 02:39:43;;;;;;;11.52;7.10;;;;;;;;;;5051606;28;20045;-62
2022/06/22 02:44:58;;;;;;;10.80;7.63;;;;;;;;;;5055544;28;20083;-62
2022/06/22 02:47:31;;;;;;;11.13;6.97;;;;;;;;;;5037503;28;20579;-62
2022/06/22 02:49:58;;;;;;;10.68;6.40;;;;;;;;;;5055561;28;20594;-62
2022/06/22 02:52:29;;;;;;;8.18;6.40;;;;;;;;;;5055331;28;20494;-62
2022/06/22 02:54:59;;;;;;;10.40;6.25;;;;;;;;;;5037875;28;20465;-62
2022/06/22 02:57:32;;;;;;;9.88;6.43;;;;;;;;;;5055236;28;20049;-62
2022/06/22 03:00:00;;;;;;;11.98;5.30;;;;;;;;;;5055244;28;20045;-62
2022/06/22 03:02:28;;;;;;;7.88;6.05;;;;;;;;;;5055184;28;20048;-65
2022/06/22 03:04:58;;;;;;;10.55;6.65;;;;;;;;;;5055108;28;20049;-62
2022/06/22 03:07:25;;;;;;;8.13;5.68;;;;;;;;;;5054951;28;20037;-64
2022/06/22 03:09:53;;;;;;;8.55;5.53;;;;;;;;;;5055505;28;20128;-62
2022/06/22 03:12:21;;;;;;;11.15;5.80;;;;;;;;;;5054953;28;20037;-63
2022/06/22 03:14:57;;;;;;;6.90;4.95;;;;;;;;;;5054910;28;20045;-64
2022/06/22 03:17:28;;;;;;;8.88;5.10;;;;;;;;;;5054871;28;20072;-64
2022/06/22 03:20:03;;;;;;;13.45;7.50;;;;;;;;;;5055167;28;20041;-63
2022/06/22 03:22:33;;;;;;;13.50;9.03;;;;;;;;;;5054800;28;20081;-64
2022/06/22 03:25:00;;;;;;;10.75;5.97;;;;;;;;;;5054868;28;20069;-65
2022/06/22 03:27:30;;;;;;;15.18;10.15;;;;;;;;;;5054825;28;20044;-64
2022/06/22 03:30:01;;;;;;;8.68;7.43;;;;;;;;;;5054732;28;20060;-64
2022/06/22 03:32:31;;;;;;;19.77;13.48;;;;;;;;;;5054587;28;20498;-64
2022/06/22 03:35:02;;;;;;;20.02;13.25;;;;;;;;;;5054639;28;20063;-64
2022/06/22 03:37:45;;;;;;;11.85;7.07;;;;;;;;;;5054647;28;20404;-64
2022/06/22 03:40:20;;;;;;;11.05;6.65;;;;;;;;;;5054489;28;20116;-64
2022/06/22 03:42:49;;;;;;;37.55;25.23;;;;;;;;;;5054394;28;20051;-64
2022/06/22 03:45:20;;;;;;;40.55;28.38;;;;;;;;;;5053899;28;20041;-66
2022/06/22 03:48:08;;;;;;;24.00;14.23;;;;;;;;;;5053803;28;20406;-66
2022/06/22 03:50:45;;;;;;;25.52;18.73;;;;;;;;;;5054110;28;20568;-65
2022/06/22 03:53:20;;;;;;;14.20;9.70;;;;;;;;;;5054231;28;20059;-66
2022/06/22 03:55:50;;;;;;;73.82;55.55;;;;;;;;;;5036199;28;20060;-66
2022/06/22 03:58:20;;;;;;;95.50;72.18;;;;;;;;;;5053441;28;20459;-66
2022/06/22 04:00:47;;;;;;;11.98;7.55;;;;;;;;;;5054229;28;20125;-65
2022/06/22 04:03:17;;;;;;;20.83;9.25;;;;;;;;;;5053958;28;20056;-66
2022/06/22 04:05:46;;;;;;;11.90;5.72;;;;;;;;;;5054079;28;20490;-64
2022/06/22 04:08:16;;;;;;;24.92;17.45;;;;;;;;;;5053963;28;20395;-65
2022/06/22 04:11:04;;;;;;;13.75;7.10;;;;;;;;;;5036068;28;20041;-65
2022/06/22 04:13:44;;;;;;;14.32;8.95;;;;;;;;;;5053827;28;20509;-66
2022/06/22 04:16:16;;;;;;;20.23;14.73;;;;;;;;;;5036320;28;20119;-66
2022/06/22 04:18:53;;;;;;;13.43;7.75;;;;;;;;;;5053889;28;20111;-66
2022/06/22 04:21:24;;;;;;;14.98;8.02;;;;;;;;;;5053889;28;20045;-65
2022/06/22 04:24:13;;;;;;;19.65;11.32;;;;;;;;;;5053737;28;20049;-70
2022/06/22 04:26:43;;;;;;;11.65;6.82;;;;;;;;;;5053593;28;20063;-66
2022/06/22 04:29:31;;;;;;;9.73;4.90;;;;;;;;;;5053647;28;20045;-66
2022/06/22 04:32:04;;;;;;;16.77;9.93;;;;;;;;;;5003735;28;20407;-66
2022/06/22 04:34:31;;;;;;;16.77;9.15;;;;;;;;;;5053505;28;20069;-66
2022/06/22 04:37:01;;;;;;;42.60;27.98;;;;;;;;;;5053385;28;20061;-66
2022/06/22 04:39:34;;;;;;;18.08;12.07;;;;;;;;;;5053325;28;20124;-66
2022/06/22 04:42:03;;;;;;;12.60;8.18;;;;;;;;;;5053383;28;20041;-66
2022/06/22 04:44:36;;;;;;;19.55;6.00;;;;;;;;;;5053121;28;20049;-66
2022/06/22 04:47:13;;;;;;;12.15;6.38;;;;;;;;;;5035358;28;20052;-66
2022/06/22 04:49:49;;;;;;;24.67;16.55;;;;;;;;;;5053188;28;20158;-66
2022/06/22 04:52:21;;;;;;;18.50;9.82;;;;;;;;;;5053056;28;20495;-66
2022/06/22 04:54:55;;;;;;;13.02;6.35;;;;;;;;;;5052944;28;20044;-66
2022/06/22 04:57:36;;;;;;;7.55;5.40;;;;;;;;;;5053118;28;20037;-65
2022/06/22 05:00:12;;;;;;;10.32;4.47;;;;;;;;;;5053000;28;20041;-67
2022/06/22 05:02:41;;;;;;;13.38;7.55;;;;;;;;;;5052855;28;20095;-67
2022/06/22 05:05:15;;;;;;;22.25;10.93;;;;;;;;;;5052781;28;20048;-66
2022/06/22 05:07:48;;;;;;;8.90;5.80;;;;;;;;;;5052302;28;20111;-67
2022/06/22 05:10:22;;;;;;;12.30;8.15;;;;;;;;;;5052846;28;20033;-66
2022/06/22 05:12:58;;;;;;;12.50;9.30;;;;;;;;;;5052161;28;20052;-64
2022/06/22 05:15:37;;;;;;;16.92;7.80;;;;;;;;;;5051807;28;20037;-65
2022/06/22 05:18:09;;;;;;;23.63;17.40;;;;;;;;;;5052683;28;20546;-65
2022/06/22 05:20:57;;;;;;;11.88;7.65;;;;;;;;;;5052940;28;20494;-65
2022/06/22 05:23:26;;;;;;;21.42;16.15;;;;;;;;;;5052683;28;20045;-65
2022/06/22 05:25:58;;;;;;;9.40;6.28;;;;;;;;;;5035703;28;20056;-64
2022/06/22 05:28:36;;;;;;;11.32;5.25;;;;;;;;;;5052643;28;20398;-65
2022/06/22 05:31:09;;;;;;;7.43;4.57;;;;;;;;;;5052661;28;20045;-65
2022/06/22 05:33:38;;;;;;;10.70;5.13;;;;;;;;;;5052479;28;20049;-65
2022/06/22 05:36:07;;;;;;;5.72;3.40;;;;;;;;;;5052826;28;20063;-65
2022/06/22 05:38:44;;;;;;;10.57;5.18;;;;;;;;;;5052599;28;20495;-64
2022/06/22 05:41:18;;;;;;;12.45;6.95;;;;;;;;;;5052565;28;20397;-64
2022/06/22 05:43:46;;;;;;;7.28;3.65;;;;;;;;;;5052498;28;20037;-65
2022/06/22 05:46:15;;;;;;;11.43;6.43;;;;;;;;;;5052761;28;20041;-65
2022/06/22 05:48:44;;;;;;;22.05;7.15;;;;;;;;;;5052339;28;20079;-65
2022/06/22 05:51:27;;;;;;;12.43;6.75;;;;;;;;;;5052422;28;20044;-65
2022/06/22 05:54:07;;;;;;;10.60;5.50;;;;;;;;;;5052328;28;20123;-65
2022/06/22 05:56:54;;;;;;;16.83;11.45;;;;;;;;;;5052362;28;20041;-65
2022/06/22 05:59:26;;;;;;;12.88;6.13;;;;;;;;;;5036058;28;20046;-65
2022/06/22 06:02:14;;;;;;;10.45;7.20;;;;;;;;;;5052348;28;20041;-65
2022/06/22 06:04:51;;;;;;;19.67;11.60;;;;;;;;;;5036053;28;20099;-65
2022/06/22 06:07:20;;;;;;;29.80;22.85;;;;;;;;;;5052292;28;20049;-65
2022/06/22 06:09:48;;;;;;;47.30;37.30;;;;;;;;;;5052196;28;20399;-65
2022/06/22 06:12:18;;;;;;;24.70;18.85;;;;;;;;;;5052089;28;20041;-67
2022/06/22 06:14:47;;;;;;;14.90;6.40;;;;;;;;;;5034727;28;20095;-65
2022/06/22 06:17:21;;;;;;;16.52;8.18;;;;;;;;;;5052260;28;20045;-65
2022/06/22 06:19:50;;;;;;;9.82;7.47;;;;;;;;;;5056537;28;20075;-65
2022/06/22 06:22:18;;;;;;;10.77;5.28;;;;;;;;;;5056092;28;20040;-65
2022/06/22 06:27:57;;;;;;;5.03;3.90;;;;;;;;;;5056039;28;20495;-65
2022/06/22 06:30:27;;;;;;;11.32;4.50;;;;;;;;;;5056101;28;20073;-65
2022/06/22 06:32:58;;;;;;;14.18;8.85;;;;;;;;;;5055973;28;20056;-65
2022/06/22 06:35:29;;;;;;;8.90;4.28;;;;;;;;;;5055905;28;20043;-65
2022/06/22 06:37:56;;;;;;;9.18;3.83;;;;;;;;;;5055582;28;20055;-65
2022/06/22 06:40:42;;;;;;;6.18;4.00;;;;;;;;;;5055668;28;20044;-65
2022/06/22 06:43:28;;;;;;;8.05;5.70;;;;;;;;;;5055748;28;20041;-65
2022/06/22 06:45:56;;;;;;;13.63;7.03;;;;;;;;;;5055522;28;20498;-65
2022/06/22 06:48:28;;;;;;;7.20;4.82;;;;;;;;;;5055511;28;20037;-65
2022/06/22 06:50:57;;;;;;;10.57;3.95;;;;;;;;;;5055546;28;20045;-66
2022/06/22 06:53:44;;;;;;;6.15;3.92;;;;;;;;;;5055466;28;20041;-67
2022/06/22 06:56:11;;;;;;;11.25;4.53;;;;;;;;;;5055326;28;20041;-67
2022/06/22 06:58:45;;;;;;;6.72;3.67;;;;;;;;;;5055210;28;20052;-66
2022/06/22 07:01:16;;;;;;;5.97;3.90;;;;;;;;;;5055163;28;20041;-67
2022/06/22 07:03:44;;;;;;;8.82;4.30;;;;;;;;;;5055179;28;20059;-67
2022/06/22 07:06:12;;;;;;;10.93;4.10;;;;;;;;;;5055157;28;20045;-67
2022/06/22 07:08:52;;;;;;;9.75;4.80;;;;;;;;;;5055172;28;20051;-66
2022/06/22 07:11:19;;;;;;;11.45;5.43;;;;;;;;;;5055226;28;20063;-67
2022/06/22 07:13:48;;;;;;;15.43;9.70;;;;;;;;;;5054923;28;20048;-67
2022/06/22 07:16:20;;;;;;;8.38;4.53;;;;;;;;;;5054994;28;20376;-66
2022/06/22 07:18:53;;;;;;;22.05;13.38;;;;;;;;;;5054740;28;20051;-65
2022/06/22 07:21:53;;;;;;;11.03;6.27;;;;;;;;;;5036975;28;20052;-67
2022/06/22 07:24:25;;;;;;;22.38;11.57;;;;;;;;;;5001322;28;20639;-67
2022/06/22 07:27:11;;;;;;;24.00;14.82;;;;;;;;;;5054811;28;20033;-65
2022/06/22 07:29:45;;;;;;;8.82;4.05;;;;;;;;;;5053735;28;20120;-65
2022/06/22 07:32:20;;;;;;;16.83;6.13;;;;;;;;;;5054857;28;20095;-65
2022/06/22 07:34:58;;;;;;;10.80;6.65;;;;;;;;;;5054619;28;20071;-64
2022/06/22 07:37:31;;;;;;;7.82;3.10;;;;;;;;;;5054624;28;20056;-65
2022/06/22 07:39:58;;;;;;;5.15;2.70;;;;;;;;;;5054311;28;20152;-65
2022/06/22 07:42:26;;;;;;;8.45;5.88;;;;;;;;;;5054547;28;20461;-67
2022/06/22 07:44:54;;;;;;;7.85;4.85;;;;;;;;;;5054520;28;20132;-67
2022/06/22 07:47:26;;;;;;;5.78;2.88;;;;;;;;;;5054789;28;20119;-65
2022/06/22 07:49:57;;;;;;;6.63;3.38;;;;;;;;;;5054825;28;20049;-68
2022/06/22 07:52:27;;;;;;;7.03;3.70;;;;;;;;;;5054564;28;20124;-66
2022/06/22 07:55:14;;;;;;;6.57;4.38;;;;;;;;;;5054343;28;20041;-66
2022/06/22 07:57:54;;;;;;;8.65;4.63;;;;;;;;;;5054262;28;20079;-66
2022/06/22 08:00:23;;;;;;;12.13;5.60;;;;;;;;;;5054252;28;20041;-66
2022/06/22 08:02:56;;;;;;;6.53;4.03;;;;;;;;;;5054132;28;20055;-66
2022/06/22 08:05:26;;;;;;;7.50;3.15;;;;;;;;;;5054151;28;20449;-66
2022/06/22 08:08:00;;;;;;;6.25;5.20;;;;;;;;;;5054361;28;20041;-66
2022/06/22 08:10:47;;;;;;;5.70;2.40;;;;;;;;;;5054052;28;20136;-66
2022/06/22 08:13:18;;;;;;;11.80;3.55;;;;;;;;;;5035962;28;20047;-66
2022/06/22 08:15:47;;;;;;;4.85;3.05;;;;;;;;;;5053961;28;20042;-66
2022/06/22 08:18:15;;;;;;;5.00;3.10;;;;;;;;;;5053973;28;20033;-66
2022/06/22 08:20:43;;;;;;;5.95;3.83;;;;;;;;;;5054000;28;20108;-66
2022/06/22 08:23:15;;;;;;;8.32;2.20;;;;;;;;;;5054096;28;20455;-66
2022/06/22 08:26:01;;;;;;;6.03;2.60;;;;;;;;;;5053598;28;20040;-67
2022/06/22 08:28:30;;;;;;;7.13;3.00;;;;;;;;;;5053645;28;20045;-66
2022/06/22 08:30:57;;;;;;;5.68;2.10;;;;;;;;;;5053600;28;20045;-67
2022/06/22 08:33:33;;;;;;;6.18;2.35;;;;;;;;;;5053551;28;20098;-67
2022/06/22 08:36:06;;;;;;;5.05;3.35;;;;;;;;;;5053611;28;20112;-66
2022/06/22 08:38:59;;;;;;;3.70;2.20;;;;;;;;;;5053533;28;20071;-66
2022/06/22 08:41:27;;;;;;;;;;;;;;;;;;5016720;28;20067;-67
2022/06/22 08:43:55;;;;;;;12.35;8.80;;;;;;;;;;5053550;28;19956;-67
2022/06/22 08:46:41;;;;;;;10.95;6.68;;;;;;;;;;5053367;28;20049;-67
2022/06/22 08:49:11;;;;;;;11.48;7.30;;;;;;;;;;5053299;28;20071;-67
2022/06/22 08:51:42;;;;;;;9.95;5.65;;;;;;;;;;5035486;28;20041;-67
2022/06/22 08:54:09;;;;;;;8.82;5.03;;;;;;;;;;5053142;28;20132;-67
2022/06/22 08:56:40;;;;;;;4.70;2.75;;;;;;;;;;5053159;28;20037;-67
2022/06/22 08:59:14;;;;;;;5.40;2.25;;;;;;;;;;5053160;28;20453;-67
2022/06/22 09:01:52;;;;;;;4.72;2.45;;;;;;;;;;5052973;28;20037;-66
2022/06/22 09:04:32;;;;;;;9.32;2.90;;;;;;;;;;5053001;28;20047;-65
2022/06/22 09:07:08;;;;;;;7.43;3.78;;;;;;;;;;5053564;28;20033;-65
2022/06/22 09:09:36;;;;;;;7.75;3.17;;;;;;;;;;5052894;28;20037;-66
2022/06/22 09:12:03;;;;;;;3.58;2.40;;;;;;;;;;5052926;28;20486;-65
2022/06/22 09:14:37;;;;;;;7.47;2.92;;;;;;;;;;5052662;28;20052;-65
2022/06/22 09:17:05;;;;;;;6.63;2.40;;;;;;;;;;5034973;28;20087;-67
2022/06/22 09:19:32;;;;;;;4.60;2.42;;;;;;;;;;5035295;28;20373;-67
2022/06/22 09:22:19;;;;;;;6.57;1.98;;;;;;;;;;5052839;28;20048;-68
2022/06/22 09:24:59;;;;;;;6.35;2.88;;;;;;;;;;5052799;28;20045;-65
2022/06/22 09:27:43;;;;;;;7.30;4.40;;;;;;;;;;5052526;28;20572;-67
2022/06/22 09:30:26;;;;;;;7.45;3.03;;;;;;;;;;5052532;28;20037;-67
2022/06/22 09:33:06;;;;;;;4.43;2.90;;;;;;;;;;5052672;28;20036;-68
2022/06/22 09:35:43;;;;;;;4.55;2.28;;;;;;;;;;5052488;28;20045;-65
2022/06/22 09:38:22;;;;;;;7.07;2.55;;;;;;;;;;5034704;28;20068;-65
2022/06/22 09:40:53;;;;;;;4.43;2.05;;;;;;;;;;5052499;28;20036;-65
2022/06/22 09:43:40;;;;;;;3.30;2.03;;;;;;;;;;5052464;28;20040;-65
2022/06/22 09:46:16;;;;;;;5.13;2.10;;;;;;;;;;5003121;28;20068;-65
2022/06/22 09:48:50;;;;;;;3.83;2.05;;;;;;;;;;5052373;28;20119;-65
2022/06/22 09:51:27;;;;;;;7.80;4.60;;;;;;;;;;5052252;28;20514;-65
2022/06/22 09:53:54;;;;;;;40.95;33.85;;;;;;;;;;5051607;28;20039;-65
2022/06/22 09:56:41;;;;;;;10.05;6.57;;;;;;;;;;5052383;28;20071;-65
2022/06/22 09:59:30;;;;;;;2.83;1.92;;;;;;;;;;5052256;28;20087;-64
2022/06/22 10:02:06;;;;;;;5.63;2.20;;;;;;;;;;5052114;28;20045;-64
2022/06/22 10:04:46;;;;;;;4.45;2.90;;;;;;;;;;5052084;28;20069;-64
2022/06/22 10:07:14;;;;;;;4.70;1.95;;;;;;;;;;5052240;28;20441;-65
2022/06/22 10:09:54;;;;;;;7.28;2.28;;;;;;;;;;5052164;28;20119;-67
2022/06/22 10:12:29;;;;;;;6.28;2.20;;;;;;;;;;5052532;28;20445;-65
2022/06/22 10:15:09;;;;;;;5.05;2.97;;;;;;;;;;5052238;28;20490;-65
2022/06/22 10:17:52;;;;;;;4.45;2.10;;;;;;;;;;5052259;28;20043;-65
2022/06/22 10:20:35;;;;;;;5.97;2.28;;;;;;;;;;5052009;28;20037;-67
2022/06/22 10:23:04;;;;;;;5.22;2.60;;;;;;;;;;5052271;28;20045;-67
2022/06/22 10:25:34;;;;;;;7.47;2.72;;;;;;;;;;5051939;28;20033;-66
2022/06/22 10:28:25;;;;;;;9.80;2.92;;;;;;;;;;5052318;28;20041;-66
2022/06/22 10:31:02;;;;;;;4.70;2.28;;;;;;;;;;5022594;28;20037;-66
2022/06/22 10:33:36;;;;;;;7.88;1.77;;;;;;;;;;5051661;28;20110;-66
2022/06/22 10:36:05;;;;;;;9.13;1.90;;;;;;;;;;5051953;28;20499;-66
2022/06/22 10:38:38;;;;;;;3.05;1.50;;;;;;;;;;5051733;28;20503;-66
2022/06/22 10:47:12;;;;;;;5.25;3.00;;;;;;;;;;5051910;28;20410;-66
2022/06/22 10:49:54;;;;;;;4.93;3.53;;;;;;;;;;5051950;28;20450;-66
2022/06/22 10:52:41;;;;;;;4.47;2.40;;;;;;;;;;5051864;28;20049;-66
2022/06/22 10:55:19;;;;;;;6.28;3.58;;;;;;;;;;5051841;28;20045;-66
2022/06/22 10:57:58;;;;;;;7.68;2.72;;;;;;;;;;5051911;28;20124;-66
2022/06/22 11:00:34;;;;;;;4.10;2.15;;;;;;;;;;5051835;28;20045;-67
2022/06/22 11:03:11;;;;;;;6.82;2.35;;;;;;;;;;5051764;28;20045;-66
2022/06/22 11:05:41;;;;;;;6.15;2.10;;;;;;;;;;5053606;28;20494;-65
2022/06/22 11:08:28;;;;;;;7.25;2.10;;;;;;;;;;5055630;28;20041;-65
2022/06/22 11:11:10;;;;;;;6.45;2.80;;;;;;;;;;5055291;28;20049;-66
2022/06/22 11:13:53;;;;;;;5.75;2.15;;;;;;;;;;5055106;28;20449;-66
2022/06/22 11:16:24;;;;;;;7.20;2.10;;;;;;;;;;5055106;28;20045;-66
2022/06/22 11:19:17;;;;;;;6.28;1.75;;;;;;;;;;5055183;28;20159;-66
2022/06/22 11:22:03;;;;;;;4.75;2.35;;;;;;;;;;5037301;28;20043;-66
2022/06/22 11:24:37;;;;;;;4.55;1.80;;;;;;;;;;5036974;28;20136;-66
2022/06/22 11:33:10;;;;;;;4.50;1.90;;;;;;;;;;5021387;28;20073;-66
2022/06/22 11:35:46;;;;;;;3.00;1.27;;;;;;;;;;5054721;28;20383;-66
2022/06/22 11:38:29;;;;;;;1.35;1.10;;;;;;;;;;5054475;28;20047;-65
2022/06/22 11:41:09;;;;;;;4.47;1.70;;;;;;;;;;5054741;28;20040;-66
2022/06/22 11:43:37;;;;;;;2.78;1.27;;;;;;;;;;5054715;28;20073;-66
2022/06/22 11:46:13;;;;;;;2.60;1.17;;;;;;;;;;5054519;28;20034;-66
2022/06/22 11:48:54;;;;;;;2.53;2.00;;;;;;;;;;5054462;28;20033;-66
2022/06/22 11:51:54;;;;;;;4.32;2.10;;;;;;;;;;5054426;28;20072;-66
2022/06/22 11:54:24;;;;;;;4.30;1.50;;;;;;;;;;5000509;28;20132;-66
2022/06/22 11:57:02;;;;;;;4.63;1.85;;;;;;;;;;5054171;28;20120;-66
2022/06/22 11:59:49;;;;;;;3.63;1.92;;;;;;;;;;5054179;28;20065;-66
2022/06/22 12:02:35;;;;;;;3.75;1.23;;;;;;;;;;5054093;28;20099;-66
2022/06/22 12:05:08;;;;;;;4.70;1.50;;;;;;;;;;5054013;28;20041;-66
2022/06/22 12:07:39;;;;;;;6.70;1.57;;;;;;;;;;5054338;28;20445;-66
2022/06/22 12:10:13;;;;;;;4.28;1.48;;;;;;;;;;5054054;28;20390;-66
2022/06/22 12:12:40;;;;;;;2.08;1.38;;;;;;;;;;5053988;28;20065;-66
2022/06/22 12:15:19;;;;;;;4.95;1.70;;;;;;;;;;5053669;28;20067;-66
2022/06/22 12:17:55;;;;;;;4.43;2.20;;;;;;;;;;5053760;28;20456;-66
2022/06/22 12:20:26;;;;;;;4.35;1.70;;;;;;;;;;5053707;28;20053;-66
2022/06/22 12:23:12;;;;;;;4.13;1.77;;;;;;;;;;5053616;28;20098;-66
2022/06/22 12:25:58;;;;;;;5.63;2.50;;;;;;;;;;5053447;28;20400;-66
2022/06/22 12:28:44;;;;;;;6.10;1.60;;;;;;;;;;5053714;28;20116;-66
2022/06/22 12:31:11;;;;;;;5.32;1.70;;;;;;;;;;5053842;28;20096;-66
2022/06/22 12:33:45;;;;;;;3.65;1.77;;;;;;;;;;5053581;28;20099;-67
2022/06/22 12:36:14;;;;;;;2.65;1.27;;;;;;;;;;5053462;28;20055;-64
2022/06/22 12:38:47;;;;;;;5.68;1.40;;;;;;;;;;5053440;28;20056;-67
2022/06/22 12:41:43;;;;;;;4.75;1.25;;;;;;;;;;5053467;28;20033;-65
2022/06/22 12:44:29;;;;;;;3.67;1.38;;;;;;;;;;5053404;28;20052;-65
2022/06/22 12:47:15;;;;;;;4.35;1.55;;;;;;;;;;5053378;28;20076;-67
2022/06/22 12:49:51;;;;;;;4.03;1.40;;;;;;;;;;5053370;28;20124;-67
2022/06/22 12:52:37;;;;;;;6.03;2.17;;;;;;;;;;5053254;28;20518;-67
2022/06/22 12:55:08;;;;;;;3.88;1.70;;;;;;;;;;5053259;28;20044;-65
2022/06/22 12:57:41;;;;;;;3.42;2.50;;;;;;;;;;5053152;28;20041;-65
2022/06/22 13:00:12;;;;;;;3.92;1.77;;;;;;;;;;5053221;28;20166;-65
2022/06/22 13:02:40;;;;;;;7.60;2.30;;;;;;;;;;5052969;28;20048;-65
2022/06/22 13:05:10;;;;;;;8.07;2.15;;;;;;;;;;5053034;28;20498;-65
2022/06/22 13:07:41;;;;;;;4.18;2.00;;;;;;;;;;5053329;28;20399;-65
2022/06/22 13:10:13;;;;;;;2.53;1.60;;;;;;;;;;5052973;28;20124;-65
2022/06/22 13:12:44;;;;;;;3.30;1.70;;;;;;;;;;5052940;28;20081;-65
2022/06/22 13:15:30;;;;;;;3.45;1.95;;;;;;;;;;5052854;28;20049;-67
2022/06/22 13:18:18;;;;;;;4.28;1.83;;;;;;;;;;5052798;28;20044;-65
2022/06/22 13:20:48;;;;;;;5.53;1.63;;;;;;;;;;5036638;28;20060;-65
2022/06/22 13:23:16;;;;;;;4.60;1.90;;;;;;;;;;5052630;28;20048;-65
2022/06/22 13:26:13;;;;;;;2.88;1.35;;;;;;;;;;5052745;28;20048;-65
2022/06/22 13:28:51;;;;;;;4.28;1.55;;;;;;;;;;5031550;28;20061;-65
2022/06/22 13:31:39;;;;;;;3.33;1.27;;;;;;;;;;5052762;28;20053;-66
2022/06/22 13:34:09;;;;;;;2.00;1.35;;;;;;;;;;5052722;28;20083;-66
2022/06/22 13:36:40;;;;;;;3.20;1.40;;;;;;;;;;5052546;28;20068;-68
2022/06/22 13:39:20;;;;;;;4.10;1.45;;;;;;;;;;5052440;28;20045;-66
2022/06/22 13:41:57;;;;;;;2.80;1.70;;;;;;;;;;5052594;28;20428;-66
2022/06/22 13:44:28;;;;;;;5.43;1.73;;;;;;;;;;5052431;28;20518;-66
2022/06/22 13:47:11;;;;;;;7.00;1.40;;;;;;;;;;5052438;28;20099;-65
2022/06/22 13:49:38;;;;;;;18.95;16.42;;;;;;;;;;5052443;28;20483;-65
2022/06/22 13:52:36;;;;;;;10.73;8.80;;;;;;;;;;5052274;28;20045;-65
2022/06/22 13:55:06;;;;;;;28.27;22.27;;;;;;;;;;5032605;28;20053;-65
2022/06/22 13:57:43;;;;;;;18.52;14.38;;;;;;;;;;5052366;28;20087;-65
2022/06/22 14:00:16;;;;;;;27.58;23.30;;;;;;;;;;5052294;28;20037;-65
2022/06/22 14:03:03;;;;;;;28.50;21.13;;;;;;;;;;5052156;28;20073;-65
2022/06/22 14:05:46;;;;;;;35.67;25.88;;;;;;;;;;5052390;28;20033;-65
2022/06/22 14:08:17;;;;;;;4.95;2.17;;;;;;;;;;5052268;28;20090;-65
2022/06/22 14:10:50;;;;;;;13.88;8.38;;;;;;;;;;5052295;28;20060;-65
2022/06/22 14:13:33;;;;;;;263.02;190.27;;;;;;;;;;5052186;28;20123;-65
2022/06/22 14:16:00;;;;;;;10.75;6.68;;;;;;;;;;5052037;28;20056;-65
2022/06/22 14:18:46;;;;;;;74.70;52.83;;;;;;;;;;5052229;28;20074;-65
2022/06/22 14:21:19;;;;;;;14.57;8.07;;;;;;;;;;5051371;28;20040;-65
2022/06/22 14:23:47;;;;;;;82.97;59.20;;;;;;;;;;5051610;28;20102;-63
2022/06/22 14:26:29;;;;;;;25.23;19.42;;;;;;;;;;5051796;28;20504;-65
2022/06/22 14:29:02;;;;;;;4.95;2.30;;;;;;;;;;5052040;28;20052;-64
2022/06/22 14:31:37;;;;;;;6.95;2.67;;;;;;;;;;5051093;28;20045;-62
2022/06/22 14:34:33;;;;;;;8.23;3.40;;;;;;;;;;5051713;28;20045;-62
2022/06/22 14:37:05;;;;;;;3.80;2.60;;;;;;;;;;5033888;28;20570;-62
2022/06/22 14:39:33;;;;;;;4.15;1.70;;;;;;;;;;5053557;28;20115;-62
2022/06/22 14:42:07;;;;;;;8.93;2.90;;;;;;;;;;5055455;28;20490;-62
2022/06/22 14:44:48;;;;;;;4.93;2.60;;;;;;;;;;5056048;28;20045;-61
2022/06/22 14:47:18;;;;;;;7.32;1.88;;;;;;;;;;5055386;28;20095;-62
2022/06/22 14:49:55;;;;;;;8.90;1.90;;;;;;;;;;5054897;28;20115;-62
2022/06/22 14:52:30;;;;;;;7.20;2.28;;;;;;;;;;5054130;28;20071;-70
2022/06/22 14:54:58;;;;;;;5.22;2.35;;;;;;;;;;5052128;28;20072;-71
2022/06/22 14:57:30;;;;;;;5.63;2.00;;;;;;;;;;5054836;28;20040;-70
2022/06/22 15:00:08;;;;;;;6.65;2.47;;;;;;;;;;5054801;28;20111;-70
2022/06/22 15:02:44;;;;;;;8.95;4.72;;;;;;;;;;5055303;28;20052;-69
2022/06/22 15:05:17;;;;;;;4.20;2.55;;;;;;;;;;5055330;28;20049;-70
2022/06/22 15:07:52;;;;;;;4.33;1.93;;;;;;;;;;5055131;28;20086;-63
2022/06/22 15:10:37;;;;;;;6.07;2.13;;;;;;;;;;5049979;28;20352;-64
2022/06/22 15:13:04;;;;;;;;;;;;;;;;;;5056358;28;20525;-64
2022/06/22 15:15:38;;;;;;;4.10;2.03;;;;;;;;;;5054038;28;19921;-65
2022/06/22 15:18:06;;;;;;;;;;;;;;;;;;5056912;28;20044;-64
2022/06/22 15:20:49;;;;;;;4.40;2.08;;;;;;;;;;5055515;28;19921;-64
2022/06/22 15:23:33;;;;;;;4.07;2.22;;;;;;;;;;5050823;28;20041;-66
2022/06/22 15:26:09;;;;;;;15.32;2.63;;;;;;;;;;5056905;28;20045;-64
2022/06/22 15:28:49;;;;;;;6.68;1.80;;;;;;;;;;5064227;28;20140;-64
2022/06/22 15:31:23;;;;;;;7.50;2.10;;;;;;;;;;5054411;28;20033;-64
2022/06/22 15:33:55;;;;;;;4.45;1.60;;;;;;;;;;5054309;28;20049;-64
2022/06/22 15:36:28;;;;;;;7.75;2.00;;;;;;;;;;5054067;28;20041;-64
2022/06/22 15:38:59;;;;;;;3.55;1.80;;;;;;;;;;5054118;28;20057;-64
2022/06/22 15:41:54;;;;;;;3.90;1.70;;;;;;;;;;5056341;28;20067;-64
2022/06/22 15:44:36;;;;;;;6.13;1.60;;;;;;;;;;5062623;28;20033;-64
2022/06/22 15:47:33;;;;;;;3.33;1.75;;;;;;;;;;5042647;28;20045;-63
2022/06/22 15:50:19;;;;;;;4.53;1.73;;;;;;;;;;5031198;28;20511;-64